Time;durP1;ratioP1;P1;durP2;ratioP2;P2;SDS_P1;SDS_P2;PMS_P1;PMS_P2;Temp;Humidity;BMP_temperature;BMP_pressure;BME280_temperature;BME280_humidity;BME280_pressure;Samples;Min_cycle;Max_cycle;Signal;HPM_P1;HPM_P2
2023/04/16 00:01:39;;;;;;;3.40;2.78;;;22.00;39.20;;;;;;5018440;28;20144;-65
2023/04/16 00:04:06;;;;;;;2.60;2.40;;;22.00;39.20;;;;;;5031967;28;20048;-65
2023/04/16 00:06:34;;;;;;;3.25;2.88;;;22.00;39.30;;;;;;5023905;28;20198;-65
2023/04/16 00:09:01;;;;;;;2.70;2.50;;;22.00;39.30;;;;;;5021272;28;20053;-61
2023/04/16 00:14:41;;;;;;;3.20;2.90;;;21.90;39.20;;;;;;5021510;28;20460;-60
2023/04/16 00:17:09;;;;;;;3.22;2.92;;;21.90;39.30;;;;;;5030125;28;20052;-65
2023/04/16 00:19:36;;;;;;;4.07;3.25;;;21.90;39.30;;;;;;5026777;28;20661;-60
2023/04/16 00:22:03;;;;;;;5.28;3.15;;;21.90;39.30;;;;;;5025097;28;20060;-65
2023/04/16 00:27:39;;;;;;;4.32;3.28;;;21.90;39.30;;;;;;5021145;28;20057;-65
2023/04/16 00:30:07;;;;;;;3.03;2.70;;;21.90;39.30;;;;;;5025597;28;20460;-65
2023/04/16 00:32:34;;;;;;;4.13;2.90;;;21.90;39.30;;;;;;5026482;28;20053;-60
2023/04/16 00:35:01;;;;;;;3.60;2.80;;;21.90;39.30;;;;;;5038993;28;20545;-64
2023/04/16 00:41:09;;;;;;;3.30;2.60;;;21.90;39.30;;;;;;5021745;28;20357;-64
2023/04/16 00:44:06;;;;;;;3.08;2.38;;;21.90;39.30;;;;;;5019704;28;20064;-65
2023/04/16 00:46:35;;;;;;;4.15;2.75;;;21.90;39.30;;;;;;5016127;28;20061;-65
2023/04/16 00:49:03;;;;;;;3.47;2.95;;;21.90;39.30;;;;;;5021200;28;20549;-65
2023/04/16 00:51:31;;;;;;;3.08;2.75;;;21.90;39.30;;;;;;5008760;28;20071;-65
2023/04/16 00:58:08;;;;;;;3.25;2.35;;;21.90;39.30;;;;;;5018467;28;20051;-65
2023/04/16 01:00:36;;;;;;;3.22;2.53;;;21.90;39.30;;;;;;5026509;28;20045;-60
2023/04/16 01:03:04;;;;;;;2.97;2.65;;;21.90;39.30;;;;;;5027026;28;20056;-65
2023/04/16 01:08:47;;;;;;;3.40;2.85;;;21.90;39.30;;;;;;5021654;28;20063;-65
2023/04/16 01:11:15;;;;;;;2.38;2.17;;;21.90;39.30;;;;;;5027702;28;20569;-65
2023/04/16 01:13:42;;;;;;;3.08;2.50;;;21.90;39.30;;;;;;5022491;28;20078;-61
2023/04/16 01:16:11;;;;;;;2.10;2.00;;;21.90;39.30;;;;;;5019133;28;20501;-65
2023/04/16 01:23:12;;;;;;;2.75;2.40;;;21.90;39.30;;;;;;5033733;28;20431;-65
2023/04/16 01:25:39;;;;;;;3.47;2.90;;;21.80;39.30;;;;;;5021066;28;20053;-65
2023/04/16 01:28:06;;;;;;;2.80;2.45;;;21.80;39.30;;;;;;5008127;28;20491;-65
2023/04/16 01:30:33;;;;;;;2.28;2.00;;;21.80;39.30;;;;;;5002850;28;20052;-65
2023/04/16 01:36:51;;;;;;;3.30;2.38;;;21.80;39.30;;;;;;5003162;28;20076;-65
2023/04/16 01:39:19;;;;;;;2.63;2.42;;;21.80;39.30;;;;;;5018465;28;20049;-65
2023/04/16 01:41:46;;;;;;;2.50;2.30;;;21.80;39.30;;;;;;5002053;28;20050;-65
2023/04/16 01:44:13;;;;;;;2.78;2.50;;;21.80;39.90;;;;;;5007317;28;20054;-60
2023/04/16 01:47:20;;;;;;;3.05;2.75;;;21.80;39.40;;;;;;5008261;28;20046;-65
2023/04/16 01:49:48;;;;;;;2.35;1.90;;;21.90;39.40;;;;;;5003674;28;20047;-65
2023/04/16 01:52:15;;;;;;;3.58;2.60;;;21.90;39.40;;;;;;5017581;28;20061;-65
2023/04/16 01:54:42;;;;;;;2.67;2.15;;;21.90;39.40;;;;;;5020012;28;20053;-65
2023/04/16 01:57:10;;;;;;;7.32;3.17;;;21.90;39.40;;;;;;5007372;28;20141;-61
2023/04/16 01:59:51;;;;;;;3.60;2.65;;;21.90;39.40;;;;;;5014738;28;20046;-64
2023/04/16 02:02:18;;;;;;;2.25;2.03;;;21.90;39.30;;;;;;5009126;28;20046;-60
2023/04/16 02:04:45;;;;;;;2.80;2.47;;;21.90;39.30;;;;;;5002119;28;20399;-65
2023/04/16 02:07:13;;;;;;;2.30;2.08;;;21.90;39.90;;;;;;5007061;28;20114;-65
2023/04/16 02:09:41;;;;;;;2.35;2.05;;;21.90;39.30;;;;;;5000980;28;20045;-64
2023/04/16 02:15:44;;;;;;;2.85;2.40;;;21.90;39.30;;;;;;4999084;28;20796;-65
2023/04/16 02:18:12;;;;;;;2.58;2.13;;;21.90;39.40;;;;;;4997895;28;20065;-61
2023/04/16 02:20:42;;;;;;;2.53;1.85;;;21.90;39.40;;;;;;5002252;28;20080;-66
2023/04/16 02:23:09;;;;;;;3.53;2.20;;;21.80;39.40;;;;;;4997807;28;20402;-61
2023/04/16 02:25:41;;;;;;;2.45;2.00;;;21.80;39.30;;;;;;5009890;28;20046;-65
2023/04/16 02:28:14;;;;;;;2.00;1.90;;;21.80;39.40;;;;;;5004105;28;20054;-65
2023/04/16 02:30:41;;;;;;;2.17;1.85;;;21.80;39.40;;;;;;5008890;28;20057;-65
2023/04/16 02:33:13;;;;;;;3.10;2.53;;;21.80;39.40;;;;;;5003237;28;20042;-68
2023/04/16 02:35:40;;;;;;;1.88;1.67;;;21.80;39.40;;;;;;5004644;28;20053;-65
2023/04/16 02:41:45;;;;;;;2.42;1.70;;;21.80;39.40;;;;;;4998196;28;20077;-64
2023/04/16 02:44:12;;;;;;;2.92;2.63;;;21.80;39.40;;;;;;5002807;28;20475;-65
2023/04/16 02:46:40;;;;;;;2.50;2.10;;;21.80;39.40;;;;;;5002824;28;20042;-64
2023/04/16 02:49:07;;;;;;;2.08;1.95;;;21.80;39.40;;;;;;4999884;28;20050;-65
2023/04/16 02:55:16;;;;;;;2.28;1.63;;;21.80;39.40;;;;;;5000896;28;20100;-65
2023/04/16 02:57:43;;;;;;;2.00;1.80;;;21.80;39.40;;;;;;5002864;28;20045;-64
2023/04/16 03:00:10;;;;;;;2.33;2.00;;;21.80;39.40;;;;;;4996986;28;20073;-66
2023/04/16 03:02:37;;;;;;;2.40;1.90;;;21.80;39.40;;;;;;4996223;28;20054;-65
2023/04/16 03:05:05;;;;;;;1.98;1.77;;;21.80;39.40;;;;;;4996381;28;20054;-65
2023/04/16 03:07:32;;;;;;;2.08;1.67;;;21.80;39.40;;;;;;4994753;28;20050;-65
2023/04/16 03:09:59;;;;;;;2.00;1.90;;;21.80;39.40;;;;;;5012996;28;20483;-64
2023/04/16 03:12:26;;;;;;;2.70;2.15;;;21.80;39.40;;;;;;4997391;28;20053;-60
2023/04/16 03:14:53;;;;;;;2.00;1.80;;;21.80;40.00;;;;;;5005564;28;20089;-64
2023/04/16 03:21:11;;;;;;;1.88;1.73;;;21.80;39.40;;;;;;5001430;28;20040;-65
2023/04/16 03:23:39;;;;;;;1.73;1.63;;;21.80;39.40;;;;;;4998986;28;20061;-65
2023/04/16 03:26:06;;;;;;;2.30;1.92;;;21.80;39.40;;;;;;5007833;28;20065;-65
2023/04/16 03:28:33;;;;;;;1.80;1.70;;;21.80;39.40;;;;;;5000336;28;20060;-61
2023/04/16 03:31:13;;;;;;;2.10;1.90;;;21.80;39.40;;;;;;4996769;28;20043;-65
2023/04/16 03:33:40;;;;;;;1.75;1.65;;;21.80;39.40;;;;;;4998108;28;20053;-65
2023/04/16 03:36:07;;;;;;;2.13;1.85;;;21.80;39.50;;;;;;4998842;28;20506;-65
2023/04/16 03:38:34;;;;;;;1.90;1.80;;;21.80;40.00;;;;;;4997580;28;21738;-61
2023/04/16 03:41:01;;;;;;;1.98;1.85;;;21.80;39.40;;;;;;5014973;28;20056;-65
2023/04/16 03:46:43;;;;;;;1.50;1.35;;;21.80;39.40;;;;;;4996166;28;20061;-65
2023/04/16 03:49:10;;;;;;;2.22;1.88;;;21.80;39.40;;;;;;5000320;28;20077;-65
2023/04/16 03:51:38;;;;;;;1.50;1.40;;;21.70;39.40;;;;;;4997649;28;20046;-63
2023/04/16 03:54:13;;;;;;;2.38;1.60;;;21.80;39.40;;;;;;4997019;28;20051;-65
2023/04/16 03:56:40;;;;;;;1.60;1.50;;;21.80;39.50;;;;;;5007915;28;20049;-64
2023/04/16 03:59:13;;;;;;;1.50;1.40;;;21.80;39.40;;;;;;4995992;28;20050;-64
2023/04/16 04:01:54;;;;;;;1.75;1.52;;;21.80;39.40;;;;;;4996457;28;20052;-65
2023/04/16 04:04:21;;;;;;;1.67;1.58;;;21.80;39.40;;;;;;4993498;28;20050;-65
2023/04/16 04:06:48;;;;;;;1.55;1.42;;;21.80;39.40;;;;;;4996987;28;20121;-64
2023/04/16 04:12:40;;;;;;;2.10;1.60;;;21.80;39.40;;;;;;4995975;28;20049;-60
2023/04/16 04:15:12;;;;;;;1.58;1.40;;;21.80;39.40;;;;;;4995742;28;20085;-60
2023/04/16 04:17:40;;;;;;;1.65;1.55;;;21.80;39.40;;;;;;5003294;28;20061;-60
2023/04/16 04:20:07;;;;;;;1.00;1.00;;;21.80;39.40;;;;;;5000872;28;20543;-65
2023/04/16 04:22:34;;;;;;;1.75;1.65;;;21.80;39.40;;;;;;5003623;28;20262;-60
2023/04/16 04:25:01;;;;;;;1.33;1.23;;;21.80;39.40;;;;;;4998857;28;20060;-64
2023/04/16 04:27:33;;;;;;;1.23;1.13;;;21.80;39.40;;;;;;4997081;28;20060;-64
2023/04/16 04:30:00;;;;;;;1.52;1.42;;;21.80;39.40;;;;;;5003937;28;20054;-64
2023/04/16 04:32:43;;;;;;;1.80;1.50;;;21.80;39.40;;;;;;5001180;28;20084;-65
2023/04/16 04:39:02;;;;;;;1.73;1.63;;;21.80;39.40;;;;;;5002867;28;20496;-65
2023/04/16 04:41:29;;;;;;;1.40;1.27;;;21.80;39.40;;;;;;4997988;28;20052;-65
2023/04/16 04:43:56;;;;;;;1.30;1.20;;;21.70;39.30;;;;;;5003866;28;20265;-65
2023/04/16 04:46:25;;;;;;;1.38;1.23;;;21.70;39.40;;;;;;5004627;28;20072;-65
2023/04/16 04:52:50;;;;;;;1.90;1.30;;;21.70;39.50;;;;;;4997773;28;20541;-64
2023/04/16 04:55:17;;;;;;;1.15;1.10;;;21.70;39.60;;;;;;5000909;28;20071;-61
2023/04/16 04:57:44;;;;;;;1.40;1.30;;;21.70;39.60;;;;;;5004764;28;20132;-61
2023/04/16 05:00:12;;;;;;;1.58;1.48;;;21.70;39.50;;;;;;5001960;28;20058;-65
2023/04/16 05:02:39;;;;;;;1.30;1.20;;;21.70;39.60;;;;;;5006988;28;20061;-61
2023/04/16 05:05:07;;;;;;;1.27;1.17;;;21.70;39.50;;;;;;5003653;28;20054;-65
2023/04/16 05:07:34;;;;;;;3.03;1.35;;;21.70;39.50;;;;;;5003649;28;20121;-65
2023/04/16 05:10:01;;;;;;;1.75;1.02;;;21.70;39.50;;;;;;4999827;28;20042;-61
2023/04/16 05:13:05;;;;;;;0.80;0.80;;;21.70;39.40;;;;;;5010872;28;20050;-65
2023/04/16 05:15:32;;;;;;;1.40;0.98;;;21.70;39.40;;;;;;5004084;28;20129;-60
2023/04/16 05:17:59;;;;;;;1.55;1.15;;;21.70;39.40;;;;;;5001469;28;20390;-64
2023/04/16 05:20:26;;;;;;;1.50;1.23;;;21.70;39.40;;;;;;5000283;28;20057;-65
2023/04/16 05:22:54;;;;;;;0.90;0.65;;;21.70;39.30;;;;;;5007833;28;20058;-65
2023/04/16 05:28:44;;;;;;;1.10;0.98;;;21.80;39.30;;;;;;5013122;28;20042;-65
2023/04/16 05:31:11;;;;;;;1.70;1.17;;;21.80;39.20;;;;;;4999980;28;20043;-65
2023/04/16 05:33:38;;;;;;;0.90;0.90;;;21.80;39.20;;;;;;4998516;28;20447;-65
2023/04/16 05:36:05;;;;;;;1.38;1.00;;;21.90;39.20;;;;;;4998175;28;20487;-65
2023/04/16 05:39:15;;;;;;;1.33;1.23;;;21.90;39.20;;;;;;5005881;28;20084;-65
2023/04/16 05:41:43;;;;;;;0.75;0.70;;;21.90;39.00;;;;;;5002924;28;20566;-60
2023/04/16 05:44:10;;;;;;;0.98;0.88;;;22.00;39.00;;;;;;5005335;28;20065;-65
2023/04/16 05:46:37;;;;;;;1.20;1.10;;;22.00;38.90;;;;;;4997092;28;20422;-61
2023/04/16 05:49:04;;;;;;;1.10;1.00;;;22.00;38.80;;;;;;4996282;28;20066;-65
2023/04/16 05:54:54;;;;;;;0.70;0.70;;;22.10;38.80;;;;;;4999239;28;20536;-65
2023/04/16 05:57:21;;;;;;;0.73;0.70;;;22.20;38.80;;;;;;4999650;28;20465;-65
2023/04/16 05:59:48;;;;;;;0.80;0.80;;;22.20;38.70;;;;;;5001516;28;20049;-61
2023/04/16 06:02:15;;;;;;;2.78;0.85;;;22.20;38.60;;;;;;5008492;28;20064;-65
2023/04/16 06:05:13;;;;;;;0.80;0.80;;;22.20;38.60;;;;;;5006564;28;20478;-61
2023/04/16 06:07:41;;;;;;;0.90;0.90;;;22.30;38.60;;;;;;4999570;28;20103;-65
2023/04/16 06:10:08;;;;;;;1.02;0.90;;;22.30;38.50;;;;;;5012369;28;20394;-64
2023/04/16 06:12:35;;;;;;;0.95;0.90;;;22.30;38.50;;;;;;5008591;28;20136;-65
2023/04/16 06:15:03;;;;;;;0.93;0.88;;;22.30;38.50;;;;;;5012135;28;20042;-64
2023/04/16 06:20:42;;;;;;;1.08;0.63;;;22.40;38.40;;;;;;4998846;28;20470;-64
2023/04/16 06:23:09;;;;;;;0.88;0.73;;;22.40;38.40;;;;;;4997066;28;20046;-65
2023/04/16 06:25:36;;;;;;;0.88;0.88;;;22.30;38.30;;;;;;4994746;28;20062;-61
2023/04/16 06:28:03;;;;;;;1.10;0.90;;;22.40;38.30;;;;;;5001847;28;20052;-65
2023/04/16 06:31:13;;;;;;;1.17;0.75;;;22.40;38.30;;;;;;4999011;28;20069;-64
2023/04/16 06:33:41;;;;;;;0.95;0.80;;;22.40;38.20;;;;;;4996737;28;20041;-65
2023/04/16 06:36:10;;;;;;;0.68;0.68;;;22.50;38.30;;;;;;4994936;28;20046;-65
2023/04/16 06:38:39;;;;;;;0.80;0.80;;;22.50;38.30;;;;;;5002189;28;20096;-65
2023/04/16 06:41:06;;;;;;;0.77;0.77;;;22.50;38.20;;;;;;4996975;28;20052;-64
2023/04/16 06:44:14;;;;;;;0.70;0.70;;;22.50;38.20;;;;;;4994416;28;20061;-61
2023/04/16 06:46:42;;;;;;;0.85;0.70;;;22.50;38.10;;;;;;4999369;28;20045;-65
2023/04/16 06:49:26;;;;;;;0.80;0.75;;;22.60;38.10;;;;;;4993937;28;20057;-65
2023/04/16 06:52:06;;;;;;;0.85;0.85;;;22.60;38.10;;;;;;4999358;28;20069;-65
2023/04/16 06:54:33;;;;;;;0.93;0.80;;;22.70;38.00;;;;;;4999092;28;20068;-61
2023/04/16 07:00:09;;;;;;;0.95;0.90;;;22.70;37.90;;;;;;4996450;28;20046;-65
2023/04/16 07:02:36;;;;;;;1.25;1.15;;;22.70;37.80;;;;;;5002646;28;20061;-60
2023/04/16 07:05:04;;;;;;;0.80;0.60;;;22.80;37.80;;;;;;5001169;28;20082;-60
2023/04/16 07:07:31;;;;;;;1.00;0.80;;;22.80;37.80;;;;;;5005621;28;20398;-65
2023/04/16 07:09:59;;;;;;;1.38;0.80;;;22.80;37.80;;;;;;5001217;28;20394;-65
2023/04/16 07:12:26;;;;;;;0.85;0.45;;;22.90;37.80;;;;;;4997164;28;20493;-65
2023/04/16 07:14:53;;;;;;;0.60;0.60;;;22.90;37.70;;;;;;4997592;28;20373;-61
2023/04/16 07:17:20;;;;;;;0.80;0.68;;;22.90;37.70;;;;;;4993390;28;20539;-65
2023/04/16 07:19:47;;;;;;;0.90;0.68;;;23.00;37.70;;;;;;5003284;28;20049;-61
2023/04/16 07:25:40;;;;;;;0.60;0.60;;;23.00;37.60;;;;;;5001756;28;20042;-65
2023/04/16 07:28:08;;;;;;;1.08;0.80;;;23.10;37.60;;;;;;5013598;28;20042;-64
2023/04/16 07:30:35;;;;;;;0.77;0.70;;;23.10;37.60;;;;;;4994400;28;20054;-64
2023/04/16 07:33:03;;;;;;;0.80;0.80;;;23.10;37.50;;;;;;5002204;28;20049;-61
2023/04/16 07:38:40;;;;;;;0.95;0.80;;;23.30;37.60;;;;;;4996637;28;20066;-65
2023/04/16 07:41:07;;;;;;;0.98;0.70;;;23.30;37.50;;;;;;4995804;28;20046;-65
2023/04/16 07:43:34;;;;;;;4.53;0.68;;;23.30;37.50;;;;;;4995694;28;20423;-64
2023/04/16 07:46:01;;;;;;;2.95;1.08;;;23.40;37.50;;;;;;4995699;28;20046;-60
2023/04/16 07:52:10;;;;;;;2.78;0.70;;;23.50;37.40;;;;;;5008184;28;20037;-60
2023/04/16 07:54:37;;;;;;;2.50;0.50;;;23.50;37.30;;;;;;5015136;28;20050;-65
2023/04/16 07:57:04;;;;;;;2.10;0.70;;;23.60;37.30;;;;;;5001480;28;20583;-65
2023/04/16 07:59:32;;;;;;;0.63;0.63;;;23.60;37.20;;;;;;4995836;28;20546;-64
2023/04/16 08:01:59;;;;;;;0.50;0.50;;;23.60;37.20;;;;;;4993527;28;20108;-62
2023/04/16 08:04:26;;;;;;;1.80;0.63;;;23.60;37.10;;;;;;5009380;28;20451;-65
2023/04/16 08:06:54;;;;;;;0.40;0.40;;;23.70;37.10;;;;;;5012267;28;20046;-64
2023/04/16 08:09:25;;;;;;;0.65;0.65;;;23.70;37.00;;;;;;5002613;28;20046;-65
2023/04/16 08:11:52;;;;;;;2.85;0.50;;;23.70;37.00;;;;;;4997871;28;20050;-65
2023/04/16 08:14:19;;;;;;;0.60;0.40;;;23.70;36.90;;;;;;5017698;28;20061;-65
2023/04/16 08:16:46;;;;;;;1.25;0.60;;;23.70;36.90;;;;;;5008965;28;20410;-65
2023/04/16 08:19:13;;;;;;;1.20;0.52;;;23.80;36.90;;;;;;5011688;28;20137;-65
2023/04/16 08:22:14;;;;;;;0.60;0.38;;;23.80;36.90;;;;;;4998675;28;20406;-65
2023/04/16 08:24:42;;;;;;;1.27;0.60;;;23.80;36.80;;;;;;5011482;28;20076;-65
2023/04/16 08:27:10;;;;;;;0.47;0.47;;;23.90;36.80;;;;;;5014163;28;20137;-65
2023/04/16 08:29:46;;;;;;;0.43;0.30;;;23.90;36.80;;;;;;4998519;28;20058;-65
2023/04/16 08:32:13;;;;;;;1.50;0.70;;;23.90;36.70;;;;;;5006443;28;20391;-65
2023/04/16 08:34:41;;;;;;;0.50;0.50;;;23.90;36.70;;;;;;5003489;28;20497;-65
2023/04/16 08:37:08;;;;;;;1.88;0.30;;;24.00;36.90;;;;;;5009144;28;20049;-65
2023/04/16 08:39:36;;;;;;;0.30;0.30;;;24.00;36.70;;;;;;5002998;28;20046;-65
2023/04/16 08:42:04;;;;;;;3.15;0.55;;;24.10;36.60;;;;;;4998383;28;20054;-61
2023/04/16 08:48:13;;;;;;;0.40;0.30;;;24.10;36.60;;;;;;5008472;28;20064;-65
2023/04/16 08:50:43;;;;;;;0.63;0.60;;;24.10;36.50;;;;;;5002370;28;20054;-64
2023/04/16 08:53:17;;;;;;;1.23;0.60;;;24.20;36.50;;;;;;5010944;28;20077;-66
2023/04/16 08:55:48;;;;;;;0.35;0.30;;;24.20;36.50;;;;;;5007154;28;20065;-66
2023/04/16 09:01:41;;;;;;;1.85;0.60;;;24.30;36.40;;;;;;5004919;28;20054;-66
2023/04/16 09:04:08;;;;;;;0.30;0.30;;;24.30;36.40;;;;;;5010677;28;20537;-66
2023/04/16 09:06:36;;;;;;;1.60;0.75;;;24.30;36.30;;;;;;5006337;28;20065;-66
2023/04/16 09:09:05;;;;;;;0.50;0.50;;;24.30;36.30;;;;;;4996774;28;20054;-65
2023/04/16 09:12:16;;;;;;;0.32;0.32;;;24.30;36.30;;;;;;5005416;28;20050;-65
2023/04/16 09:14:49;;;;;;;0.30;0.30;;;24.30;36.30;;;;;;5010438;28;20042;-65
2023/04/16 09:17:17;;;;;;;0.35;0.28;;;24.40;36.20;;;;;;4995417;28;20451;-65
2023/04/16 09:19:45;;;;;;;0.80;0.68;;;24.40;36.50;;;;;;5003162;28;20054;-65
2023/04/16 09:22:12;;;;;;;0.30;0.30;;;24.40;36.10;;;;;;5005765;28;20134;-65
2023/04/16 09:24:40;;;;;;;1.45;0.40;;;24.40;36.10;;;;;;5011962;28;20045;-67
2023/04/16 09:27:08;;;;;;;0.22;0.20;;;24.40;36.10;;;;;;4997596;28;20062;-65
2023/04/16 09:29:40;;;;;;;0.10;0.10;;;24.40;36.10;;;;;;5007009;28;20089;-65
2023/04/16 09:32:09;;;;;;;0.35;0.30;;;24.40;36.10;;;;;;5004071;28;20060;-65
2023/04/16 09:38:18;;;;;;;;;;;24.50;36.10;;;;;;5014560;28;20072;-60
2023/04/16 09:41:06;;;;;;;0.50;0.50;;;24.40;36.10;;;;;;5007474;28;19918;-60
2023/04/16 09:43:34;;;;;;;0.30;0.30;;;24.40;36.00;;;;;;4998641;28;20046;-60
2023/04/16 09:46:03;;;;;;;0.35;0.30;;;24.40;36.00;;;;;;4998636;28;20108;-60
2023/04/16 09:48:34;;;;;;;0.38;0.38;;;24.50;36.00;;;;;;4996116;28;20104;-60
2023/04/16 09:51:05;;;;;;;0.38;0.30;;;24.50;36.00;;;;;;4996826;28;20052;-60
2023/04/16 09:53:32;;;;;;;0.13;0.13;;;24.50;36.00;;;;;;4998092;28;20145;-60
2023/04/16 09:56:02;;;;;;;2.00;0.30;;;24.50;36.00;;;;;;4995395;28;20061;-60
2023/04/16 09:58:29;;;;;;;1.13;0.40;;;24.50;36.00;;;;;;4995714;28;21331;-60
2023/04/16 10:01:06;;;;;;;1.13;0.20;;;24.50;36.00;;;;;;4998400;28;20100;-60
2023/04/16 10:03:34;;;;;;;0.30;0.30;;;24.50;36.00;;;;;;4998683;28;20050;-60
2023/04/16 10:06:18;;;;;;;0.43;0.30;;;24.50;36.00;;;;;;4997828;28;20049;-60
2023/04/16 10:08:49;;;;;;;0.30;0.30;;;24.50;36.00;;;;;;5001645;28;20081;-60
2023/04/16 10:11:18;;;;;;;0.20;0.20;;;24.50;36.00;;;;;;4996356;28;20065;-61
2023/04/16 10:13:46;;;;;;;0.30;0.30;;;24.50;36.00;;;;;;5000541;28;20054;-61
2023/04/16 10:16:13;;;;;;;0.50;0.40;;;24.50;36.00;;;;;;4996717;28;20082;-61
2023/04/16 10:18:42;;;;;;;0.17;0.17;;;24.50;36.00;;;;;;4995193;28;20548;-62
2023/04/16 10:21:11;;;;;;;1.05;0.20;;;24.50;35.90;;;;;;5000209;28;20046;-60
2023/04/16 10:23:39;;;;;;;0.47;0.20;;;24.50;35.90;;;;;;4998428;28;20482;-60
2023/04/16 10:26:06;;;;;;;0.20;0.20;;;24.50;35.80;;;;;;5003422;28;20136;-60
2023/04/16 10:28:36;;;;;;;0.45;0.40;;;24.60;35.80;;;;;;4997628;28;20093;-60
2023/04/16 10:31:06;;;;;;;0.40;0.35;;;24.60;35.80;;;;;;5000607;28;20062;-60
2023/04/16 10:33:37;;;;;;;0.10;0.10;;;24.60;35.80;;;;;;5003303;28;20421;-60
2023/04/16 10:36:15;;;;;;;;;;;24.60;35.80;;;;;;4999315;28;20478;-60
2023/04/16 10:38:48;;;;;;;0.20;0.20;;;24.70;35.80;;;;;;5004698;28;20282;-60
2023/04/16 10:41:15;;;;;;;0.17;0.17;;;24.60;35.80;;;;;;4996179;28;20344;-61
2023/04/16 10:43:45;;;;;;;0.20;0.20;;;24.60;35.80;;;;;;4996487;28;20137;-60
2023/04/16 10:46:22;;;;;;;0.10;0.10;;;24.60;35.80;;;;;;4993972;28;20137;-60
2023/04/16 10:48:53;;;;;;;0.20;0.20;;;24.60;35.80;;;;;;4993721;28;20062;-61
2023/04/16 10:51:35;;;;;;;0.20;0.20;;;24.70;36.30;;;;;;4999086;28;20141;-60
2023/04/16 10:54:27;;;;;;;0.10;0.10;;;24.70;35.70;;;;;;4996871;28;20136;-60
2023/04/16 10:57:05;;;;;;;0.30;0.30;;;24.70;35.60;;;;;;4993077;28;20053;-60
2023/04/16 10:59:35;;;;;;;0.30;0.30;;;24.70;35.70;;;;;;5000265;28;20483;-60
2023/04/16 11:02:15;;;;;;;0.43;0.22;;;24.70;35.60;;;;;;4993828;28;20043;-60
2023/04/16 11:04:43;;;;;;;;;;;24.70;35.60;;;;;;4993635;28;20498;-60
2023/04/16 11:07:16;;;;;;;0.30;0.20;;;24.80;35.60;;;;;;4997231;28;19922;-60
2023/04/16 11:09:51;;;;;;;0.20;0.20;;;24.70;35.60;;;;;;4997320;28;20069;-60
2023/04/16 11:12:26;;;;;;;0.40;0.40;;;24.80;35.60;;;;;;4996732;28;20137;-61
2023/04/16 11:15:05;;;;;;;0.30;0.30;;;24.70;35.70;;;;;;4996533;28;20509;-61
2023/04/16 11:17:44;;;;;;;0.20;0.20;;;24.80;35.70;;;;;;4999994;28;20481;-60
2023/04/16 11:20:22;;;;;;;0.20;0.20;;;24.70;35.70;;;;;;4997643;28;20483;-61
2023/04/16 11:22:51;;;;;;;0.30;0.30;;;24.70;35.80;;;;;;4994710;28;20046;-61
2023/04/16 11:25:24;;;;;;;0.10;0.10;;;24.60;35.80;;;;;;5001610;28;20375;-61
2023/04/16 11:27:52;;;;;;;0.10;0.10;;;24.60;35.80;;;;;;5002188;28;20482;-62
2023/04/16 11:30:32;;;;;;;0.50;0.20;;;24.50;35.90;;;;;;4997652;28;20050;-61
2023/04/16 11:33:10;;;;;;;0.47;0.22;;;24.50;36.10;;;;;;5004499;28;20046;-60
2023/04/16 11:35:38;;;;;;;0.28;0.20;;;24.50;36.10;;;;;;4998758;28;20089;-61
2023/04/16 11:38:06;;;;;;;0.15;0.15;;;24.40;36.20;;;;;;4993440;28;20446;-61
2023/04/16 11:40:35;;;;;;;0.30;0.30;;;24.40;36.30;;;;;;5002771;28;20493;-60
2023/04/16 11:43:12;;;;;;;0.28;0.28;;;24.30;36.30;;;;;;4995017;28;20054;-61
2023/04/16 11:45:55;;;;;;;0.30;0.30;;;24.30;36.50;;;;;;5002319;28;20552;-61
2023/04/16 11:48:22;;;;;;;0.45;0.45;;;24.30;36.40;;;;;;4998869;28;20061;-60
2023/04/16 11:50:56;;;;;;;0.20;0.20;;;24.30;36.50;;;;;;4995304;28;20058;-60
2023/04/16 11:53:24;;;;;;;0.68;0.20;;;24.30;36.60;;;;;;5001483;28;20065;-62
2023/04/16 11:55:51;;;;;;;0.20;0.20;;;24.30;36.70;;;;;;5001379;28;20487;-60
2023/04/16 11:58:18;;;;;;;0.43;0.15;;;24.20;36.70;;;;;;4998753;28;20060;-62
2023/04/16 12:00:48;;;;;;;0.25;0.25;;;24.20;36.80;;;;;;5000223;28;20064;-60
2023/04/16 12:03:15;;;;;;;0.28;0.20;;;24.20;36.90;;;;;;5002475;28;20058;-60
2023/04/16 12:05:43;;;;;;;0.30;0.30;;;24.10;36.80;;;;;;4997792;28;20050;-60
2023/04/16 12:08:11;;;;;;;0.20;0.20;;;24.10;36.90;;;;;;5002057;28;20050;-61
2023/04/16 12:10:58;;;;;;;0.40;0.40;;;24.10;36.90;;;;;;4997984;28;20061;-60
2023/04/16 12:13:25;;;;;;;0.20;0.20;;;24.10;36.90;;;;;;4996102;28;20062;-60
2023/04/16 12:15:54;;;;;;;0.25;0.20;;;24.00;37.00;;;;;;4999887;28;20081;-60
2023/04/16 12:18:25;;;;;;;0.27;0.27;;;24.00;37.00;;;;;;4995381;28;20474;-60
2023/04/16 12:20:52;;;;;;;0.30;0.20;;;24.00;37.00;;;;;;5000304;28;20061;-60
2023/04/16 12:23:25;;;;;;;0.20;0.20;;;24.00;37.00;;;;;;4994891;28;20108;-60
2023/04/16 12:25:52;;;;;;;0.60;0.20;;;24.00;37.00;;;;;;4996092;28;20383;-60
2023/04/16 12:28:35;;;;;;;0.22;0.22;;;24.10;37.00;;;;;;4996499;28;20057;-60
2023/04/16 12:31:04;;;;;;;0.20;0.20;;;24.10;36.90;;;;;;4999137;28;20414;-61
2023/04/16 12:33:31;;;;;;;0.30;0.30;;;24.10;36.90;;;;;;4996643;28;20096;-60
2023/04/16 12:35:59;;;;;;;0.40;0.30;;;24.20;37.00;;;;;;4998751;28;20097;-61
2023/04/16 12:38:26;;;;;;;0.35;0.35;;;24.20;36.90;;;;;;4997141;28;20096;-60
2023/04/16 12:40:55;;;;;;;0.30;0.30;;;24.20;37.00;;;;;;5001872;28;20492;-60
2023/04/16 12:43:24;;;;;;;0.30;0.30;;;24.20;37.00;;;;;;4992475;28;20054;-60
2023/04/16 12:45:51;;;;;;;1.27;0.52;;;24.20;37.00;;;;;;4992540;28;20050;-60
2023/04/16 12:48:19;;;;;;;0.45;0.25;;;24.20;37.00;;;;;;4999475;28;20096;-60
2023/04/16 12:50:46;;;;;;;0.30;0.30;;;24.20;37.00;;;;;;5004020;28;20406;-60
2023/04/16 12:53:13;;;;;;;0.30;0.30;;;24.20;36.90;;;;;;5000467;28;20045;-60
2023/04/16 12:55:41;;;;;;;0.25;0.25;;;24.10;37.00;;;;;;5003333;28;20070;-60
2023/04/16 12:58:08;;;;;;;0.32;0.30;;;24.10;37.10;;;;;;5000130;28;20426;-61
2023/04/16 13:00:38;;;;;;;;;;;24.10;37.10;;;;;;5000431;28;20042;-60
2023/04/16 13:03:05;;;;;;;0.25;0.25;;;24.10;37.20;;;;;;5005184;28;20401;-61
2023/04/16 13:05:33;;;;;;;0.40;0.30;;;24.10;37.20;;;;;;5005229;28;20499;-60
2023/04/16 13:08:01;;;;;;;0.40;0.40;;;24.00;37.20;;;;;;4996124;28;20145;-60
2023/04/16 13:10:29;;;;;;;0.22;0.22;;;24.00;37.20;;;;;;5000787;28;20068;-60
2023/04/16 13:12:56;;;;;;;0.45;0.40;;;24.00;37.20;;;;;;5009249;28;20065;-60
2023/04/16 13:15:23;;;;;;;0.52;0.30;;;24.00;37.20;;;;;;4998716;28;20152;-60
2023/04/16 13:17:50;;;;;;;0.60;0.60;;;24.00;37.30;;;;;;4997444;28;20050;-60
2023/04/16 13:20:17;;;;;;;0.50;0.40;;;24.00;37.30;;;;;;5008715;28;20565;-60
2023/04/16 13:22:44;;;;;;;0.35;0.30;;;24.10;37.30;;;;;;5000599;28;20050;-60
2023/04/16 13:25:11;;;;;;;0.32;0.30;;;24.00;37.30;;;;;;4996825;28;20066;-60
2023/04/16 13:27:38;;;;;;;0.30;0.30;;;24.10;37.20;;;;;;4997168;28;20409;-60
2023/04/16 13:30:06;;;;;;;0.30;0.30;;;24.10;37.20;;;;;;5008181;28;20049;-60
2023/04/16 13:32:33;;;;;;;0.38;0.30;;;24.20;37.20;;;;;;5006786;28;20133;-60
2023/04/16 13:35:01;;;;;;;0.30;0.30;;;24.20;37.20;;;;;;4995370;28;20136;-60
2023/04/16 13:37:28;;;;;;;0.40;0.35;;;24.20;37.10;;;;;;5005370;28;20061;-60
2023/04/16 13:39:55;;;;;;;0.30;0.22;;;24.20;37.10;;;;;;5007533;28;20483;-60
2023/04/16 13:42:22;;;;;;;0.65;0.52;;;24.20;37.10;;;;;;5004673;28;20054;-61
2023/04/16 13:44:52;;;;;;;0.50;0.50;;;24.20;37.20;;;;;;4998807;28;20054;-60
2023/04/16 13:47:20;;;;;;;0.70;0.50;;;24.20;37.20;;;;;;4995060;28;20058;-60
2023/04/16 13:49:47;;;;;;;0.47;0.47;;;24.10;37.20;;;;;;4995626;28;20088;-60
2023/04/16 13:52:14;;;;;;;1.55;0.40;;;24.10;37.10;;;;;;4994721;28;20054;-62
2023/04/16 13:54:41;;;;;;;0.28;0.20;;;24.10;37.20;;;;;;4999458;28;20367;-60
2023/04/16 13:57:10;;;;;;;0.50;0.50;;;24.10;37.20;;;;;;4997446;28;20065;-60
2023/04/16 13:59:37;;;;;;;0.50;0.40;;;24.10;37.20;;;;;;5003693;28;20042;-60
2023/04/16 14:02:04;;;;;;;0.85;0.50;;;24.10;37.20;;;;;;5006044;28;20053;-60
2023/04/16 14:04:31;;;;;;;0.50;0.50;;;24.10;37.20;;;;;;4999649;28;20097;-60
2023/04/16 14:06:59;;;;;;;0.28;0.28;;;24.10;37.10;;;;;;4999286;28;20683;-60
2023/04/16 14:09:27;;;;;;;0.40;0.40;;;24.10;37.00;;;;;;4997165;28;20058;-60
2023/04/16 14:11:54;;;;;;;0.50;0.50;;;24.10;37.00;;;;;;5000126;28;20054;-60
2023/04/16 14:14:21;;;;;;;0.47;0.30;;;24.10;37.10;;;;;;4996727;28;20434;-61
2023/04/16 14:16:48;;;;;;;0.73;0.40;;;24.10;37.10;;;;;;4996511;28;20529;-60
2023/04/16 14:19:15;;;;;;;0.45;0.45;;;24.10;37.20;;;;;;5007243;28;20050;-60
2023/04/16 14:21:43;;;;;;;0.40;0.40;;;24.10;37.20;;;;;;4994527;28;20060;-60
2023/04/16 14:24:10;;;;;;;0.40;0.40;;;24.20;37.20;;;;;;5000851;28;20089;-60
2023/04/16 14:26:37;;;;;;;0.30;0.30;;;24.20;37.20;;;;;;5003263;28;20511;-60
2023/04/16 14:29:05;;;;;;;0.35;0.30;;;24.20;37.20;;;;;;4997684;28;20046;-61
2023/04/16 14:31:32;;;;;;;0.35;0.35;;;24.20;37.20;;;;;;4995829;28;20060;-60